This is the latest recevied weather packets stored in our database for station/object K1ADM. If no packets are shown the sender has not sent any weather packets the latest 10 day(s).
| Time | Temp. | Humidity | Pressure | Rain* | Wind** | Luminosity | Snow |
|---|---|---|---|---|---|---|---|
| 1777872303 | 3.89° C | 76% | 1006 hPa | 0 mm | - | - | - |
| 1777870203 | 5° C | 71% | 1006.1 hPa | 0 mm | - | - | - |
| 1777869904 | 5° C | 71% | 1006.1 hPa | 0 mm | - | - | - |
| 1777869003 | 5° C | 70% | 1006.1 hPa | 0 mm | - | - | - |
| 1777866603 | 5° C | 70% | 1005.8 hPa | 0 mm | - | - | - |
| 1777864504 | 5.56° C | 69% | 1005.7 hPa | 0 mm | - | - | - |
| 1777858502 | 7.22° C | 61% | 1005.1 hPa | 0 mm | - | - | - |
| 1777857902 | 7.22° C | 60% | 1004.9 hPa | 0 mm | - | - | - |
| 1777857301 | 7.22° C | 61% | 1004.9 hPa | 0 mm | - | - | - |
| 1777855501 | 7.78° C | 57% | 1004.4 hPa | 0 mm | - | - | - |
| 1777853402 | 8.33° C | 54% | 1003.8 hPa | 0 mm | - | - | - |
| 1777848902 | 10° C | 50% | 1002.8 hPa | 0 mm | - | - | - |
| 1777846802 | 10.56° C | 53% | 1002.2 hPa | 0 mm | - | - | - |
| 1777842901 | 11.11° C | 59% | 1002 hPa | 0 mm | - | - | - |
| 1777841702 | 11.11° C | 62% | 1002 hPa | 0 mm | - | - | - |
| 1777839302 | 10.56° C | 66% | 1002.3 hPa | 0 mm | - | - | - |
| 1777837502 | 9.44° C | 76% | 1002.7 hPa | 0 mm | - | - | - |
| 1777822802 | 5.56° C | 88% | 1003.9 hPa | 1.02 mm | - | - | - |
| 1777820403 | 5.56° C | 88% | 1004.2 hPa | 1.27 mm | - | - | - |
| 1777819203 | 5.56° C | 88% | 1004.4 hPa | 1.02 mm | - | - | - |
| 1777818903 | 5.56° C | 88% | 1004.5 hPa | 1.02 mm | - | - | - |
| 1777818603 | 5.56° C | 88% | 1004.5 hPa | 0.76 mm | - | - | - |
| 1777818003 | 5.56° C | 88% | 1004.7 hPa | 0.76 mm | - | - | - |
| 1777817702 | 5.56° C | 88% | 1004.7 hPa | 0.76 mm | - | - | - |
| 1777816503 | 5.56° C | 88% | 1004.7 hPa | 0.76 mm | - | - | - |
* Rain latest hour (hover to see other rain measurements)
** Current wind speed in m/s (hover to see current wind gust speed)